createdAt,value
2019-06-15T00:00:03.865Z,3.70
2019-06-15T00:01:05.003Z,3.80
2019-06-15T00:02:04.065Z,4.30
2019-06-15T00:03:04.225Z,4.10
2019-06-15T00:04:04.412Z,3.60
2019-06-15T00:05:04.536Z,4.50
2019-06-15T00:06:04.849Z,3.60
2019-06-15T00:07:04.943Z,4.70
2019-06-15T00:08:05.192Z,4.30
2019-06-15T00:09:05.095Z,4.70
2019-06-15T00:10:05.338Z,3.90
2019-06-15T00:11:05.731Z,3.80
2019-06-15T00:12:05.689Z,3.70
2019-06-15T00:13:05.734Z,4.70
2019-06-15T00:14:05.943Z,4.10
2019-06-15T00:15:06.084Z,4.50
2019-06-15T00:16:06.229Z,3.90
2019-06-15T00:17:06.363Z,3.70
2019-06-15T00:18:06.689Z,4.30
2019-06-15T00:19:06.784Z,3.90
2019-06-15T00:20:06.897Z,4.90
2019-06-15T00:21:07.164Z,3.80
2019-06-15T00:22:07.189Z,4.50
2019-06-15T00:23:07.535Z,4.50
2019-06-15T00:24:07.552Z,5.70
2019-06-15T00:25:07.789Z,4.90
2019-06-15T00:26:07.891Z,4.00
2019-06-15T00:27:08.226Z,4.80
2019-06-15T00:28:08.223Z,6.00
2019-06-15T00:29:08.338Z,5.70
2019-06-15T00:30:08.802Z,4.30
2019-06-15T00:31:08.501Z,5.60
2019-06-15T00:32:08.929Z,4.20
2019-06-15T00:33:09.071Z,6.40
2019-06-15T00:34:09.212Z,5.10
2019-06-15T00:35:09.323Z,4.60
2019-06-15T00:36:09.387Z,5.90
2019-06-15T00:37:09.729Z,4.10
2019-06-15T00:38:09.924Z,6.10
2019-06-15T00:39:10.062Z,5.60
2019-06-15T00:40:10.247Z,6.40
2019-06-15T00:41:10.258Z,4.30
2019-06-15T00:42:10.498Z,4.10
2019-06-15T00:43:10.784Z,4.60
2019-06-15T00:44:10.891Z,5.10
2019-06-15T00:45:11.142Z,3.90
2019-06-15T00:46:11.170Z,4.60
2019-06-15T00:47:11.350Z,5.20
2019-06-15T00:48:11.510Z,5.20
2019-06-15T00:49:11.651Z,5.00
2019-06-15T00:50:15.103Z,3.90
2019-06-15T00:51:14.463Z,3.30
2019-06-15T00:52:15.388Z,4.80
2019-06-15T00:53:15.236Z,7.90
2019-06-15T00:54:14.748Z,4.70
2019-06-15T00:55:14.101Z,4.40
2019-06-15T00:56:15.461Z,4.50
2019-06-15T00:57:17.258Z,4.40
2019-06-15T00:58:18.873Z,4.90
2019-06-15T00:59:16.970Z,4.00
2019-06-15T01:00:13.476Z,4.00
2019-06-15T01:01:13.596Z,4.50
2019-06-15T01:02:13.822Z,3.60
2019-06-15T01:03:14.048Z,5.10
2019-06-15T01:04:14.480Z,5.50
2019-06-15T01:05:15.306Z,4.10
2019-06-15T01:06:14.665Z,4.60
2019-06-15T01:07:14.758Z,6.20
2019-06-15T01:08:14.792Z,7.70
2019-06-15T01:09:14.942Z,4.20
2019-06-15T01:10:15.125Z,4.70
2019-06-15T01:11:15.368Z,4.50
2019-06-15T01:12:15.289Z,5.60
2019-06-15T01:13:15.669Z,5.60
2019-06-15T01:14:16.643Z,4.80
2019-06-15T01:15:15.908Z,4.60
2019-06-15T01:16:16.184Z,6.10
2019-06-15T01:17:16.164Z,4.70
2019-06-15T01:18:16.289Z,3.30
2019-06-15T01:19:16.510Z,4.80
2019-06-15T01:20:16.540Z,4.00
2019-06-15T01:21:16.629Z,3.70
2019-06-15T01:22:16.870Z,4.30
2019-06-15T01:23:17.085Z,4.80
2019-06-15T01:24:17.150Z,4.10
2019-06-15T01:25:17.244Z,4.90
2019-06-15T01:26:17.494Z,3.90
2019-06-15T01:27:17.702Z,3.70
2019-06-15T01:28:17.677Z,6.40
2019-06-15T01:29:18.011Z,4.90
2019-06-15T01:30:18.073Z,4.00
2019-06-15T01:31:18.277Z,5.90
2019-06-15T01:32:18.485Z,5.70
2019-06-15T01:33:18.576Z,4.30
2019-06-15T01:34:18.776Z,4.20
2019-06-15T01:35:18.889Z,4.90
2019-06-15T01:36:19.163Z,5.50
2019-06-15T01:37:19.271Z,4.70
2019-06-15T01:38:19.436Z,4.70
2019-06-15T01:39:19.689Z,3.80
2019-06-15T01:40:19.852Z,4.70
2019-06-15T01:41:20.007Z,5.20
2019-06-15T01:42:20.580Z,4.50
2019-06-15T01:43:20.400Z,4.10
2019-06-15T01:44:20.706Z,4.20
2019-06-15T01:45:20.855Z,5.30
2019-06-15T01:46:20.933Z,3.80
2019-06-15T01:47:21.119Z,5.00
2019-06-15T01:48:21.535Z,3.70
2019-06-15T01:49:21.538Z,5.20
2019-06-15T01:50:21.564Z,5.90
2019-06-15T01:51:21.801Z,3.40
2019-06-15T01:52:21.802Z,4.30
2019-06-15T01:53:22.110Z,5.20
2019-06-15T01:54:22.215Z,3.30
2019-06-15T01:55:22.402Z,5.30
2019-06-15T01:56:22.500Z,4.80
2019-06-15T01:57:22.582Z,4.80
2019-06-15T01:58:22.835Z,3.20
2019-06-15T01:59:22.928Z,5.30
2019-06-15T02:00:23.042Z,4.10
2019-06-15T02:01:23.249Z,3.80
2019-06-15T02:02:23.323Z,4.00
2019-06-15T02:03:23.478Z,4.20
2019-06-15T02:04:23.662Z,4.70
2019-06-15T02:05:24.549Z,6.40
2019-06-15T02:06:23.980Z,5.90
2019-06-15T02:07:24.205Z,4.00
2019-06-15T02:08:24.499Z,3.80
2019-06-15T02:09:24.586Z,5.30
2019-06-15T02:10:24.836Z,3.80
2019-06-15T02:11:25.088Z,5.70
2019-06-15T02:12:25.083Z,4.40
2019-06-15T02:13:25.306Z,3.30
2019-06-15T02:14:26.521Z,4.20
2019-06-15T02:15:25.727Z,3.70
2019-06-15T02:16:25.837Z,4.10
2019-06-15T02:17:26.450Z,3.30
2019-06-15T02:18:26.134Z,4.50
2019-06-15T02:19:26.230Z,4.60
2019-06-15T02:20:26.529Z,5.00
2019-06-15T02:21:26.728Z,5.40
2019-06-15T02:22:26.757Z,5.80
2019-06-15T02:23:27.603Z,4.10
2019-06-15T02:24:27.032Z,4.10
2019-06-15T02:25:35.246Z,6.90
2019-06-15T02:26:27.418Z,4.40
2019-06-15T02:27:27.551Z,4.20
2019-06-15T02:28:27.814Z,5.70
2019-06-15T02:29:27.894Z,3.90
2019-06-15T02:30:28.114Z,4.50
2019-06-15T02:31:28.376Z,3.70
2019-06-15T02:32:28.348Z,5.30
2019-06-15T02:33:28.601Z,4.90
2019-06-15T02:34:28.731Z,4.00
2019-06-15T02:35:29.164Z,3.70
2019-06-15T02:36:29.043Z,3.10
2019-06-15T02:37:29.251Z,4.30
2019-06-15T02:38:29.400Z,4.60
2019-06-15T02:39:29.883Z,5.00
2019-06-15T02:40:29.881Z,4.30
2019-06-15T02:41:30.429Z,4.50
2019-06-15T02:42:31.215Z,4.50
2019-06-15T02:43:30.167Z,5.00
2019-06-15T02:44:31.531Z,5.70
2019-06-15T02:45:30.485Z,3.90
2019-06-15T02:46:30.752Z,4.40
2019-06-15T02:47:30.836Z,5.50
2019-06-15T02:48:31.157Z,4.60
2019-06-15T02:49:31.408Z,3.20
2019-06-15T02:50:31.445Z,5.70
2019-06-15T02:51:32.494Z,4.00
2019-06-15T02:52:31.882Z,3.80
2019-06-15T02:53:32.113Z,6.10
2019-06-15T02:54:32.090Z,4.90
2019-06-15T02:55:32.397Z,4.50
2019-06-15T02:56:32.663Z,4.00
2019-06-15T02:57:32.693Z,4.50
2019-06-15T02:58:33.425Z,4.30
2019-06-15T02:59:32.918Z,4.40
2019-06-15T03:00:33.197Z,5.40
2019-06-15T03:01:33.222Z,4.90
2019-06-15T03:02:33.510Z,5.00
2019-06-15T03:03:34.141Z,5.20
2019-06-15T03:04:33.769Z,5.50
2019-06-15T03:05:33.935Z,3.80
2019-06-15T03:06:34.235Z,4.30
2019-06-15T03:07:35.415Z,5.60
2019-06-15T03:08:34.521Z,6.40
2019-06-15T03:09:34.773Z,5.10
2019-06-15T03:10:35.502Z,5.60
2019-06-15T03:11:35.084Z,3.80
2019-06-15T03:12:35.402Z,6.90
2019-06-15T03:13:35.565Z,4.10
2019-06-15T03:14:35.650Z,4.30
2019-06-15T03:15:35.898Z,3.10
2019-06-15T03:16:36.074Z,5.00
2019-06-15T03:17:36.228Z,3.50
2019-06-15T03:18:36.374Z,3.60
2019-06-15T03:19:36.595Z,4.50
2019-06-15T03:20:36.648Z,4.50
2019-06-15T03:21:36.800Z,4.70
2019-06-15T03:22:37.047Z,3.90
2019-06-15T03:23:37.332Z,5.20
2019-06-15T03:24:37.320Z,3.30
2019-06-15T03:25:37.492Z,3.00
2019-06-15T03:26:37.638Z,5.20
2019-06-15T03:27:37.735Z,5.20
2019-06-15T03:28:37.891Z,4.80
2019-06-15T03:29:38.016Z,4.60
2019-06-15T03:30:38.287Z,5.50
2019-06-15T03:31:38.443Z,3.90
2019-06-15T03:32:38.420Z,4.70
2019-06-15T03:33:38.730Z,4.10
2019-06-15T03:34:38.787Z,5.10
2019-06-15T03:35:39.169Z,4.50
2019-06-15T03:36:39.472Z,7.90
2019-06-15T03:37:39.257Z,8.30
2019-06-15T03:38:41.957Z,7.20
2019-06-15T03:39:42.154Z,4.60
2019-06-15T03:40:43.207Z,4.70
2019-06-15T03:41:43.154Z,5.20
2019-06-15T03:42:42.035Z,5.90
2019-06-15T03:43:43.125Z,4.70
2019-06-15T03:44:42.373Z,5.20
2019-06-15T03:45:43.299Z,5.30
2019-06-15T03:46:43.596Z,3.80
2019-06-15T03:47:43.689Z,4.50
2019-06-15T03:48:42.853Z,5.30
2019-06-15T03:49:44.684Z,3.90
2019-06-15T03:50:44.596Z,3.80
2019-06-15T03:51:43.656Z,5.40
2019-06-15T03:52:43.507Z,3.40
2019-06-15T03:53:43.700Z,4.30
2019-06-15T03:54:44.059Z,4.40
2019-06-15T03:55:44.276Z,5.70
2019-06-15T03:56:44.309Z,5.10
2019-06-15T03:57:46.912Z,5.80
2019-06-15T03:58:46.478Z,4.10
2019-06-15T03:59:46.809Z,4.00
2019-06-15T04:00:44.961Z,5.00
2019-06-15T04:01:47.272Z,5.90
2019-06-15T04:02:47.494Z,3.60
2019-06-15T04:03:45.500Z,5.80
2019-06-15T04:04:45.508Z,4.10
2019-06-15T04:05:46.556Z,6.30
2019-06-15T04:06:46.565Z,5.90
2019-06-15T04:07:44.150Z,5.50
2019-06-15T04:08:44.314Z,5.50
2019-06-15T04:09:44.413Z,4.50
2019-06-15T04:10:44.683Z,4.00
2019-06-15T04:11:44.790Z,5.70
2019-06-15T04:12:45.029Z,4.60
2019-06-15T04:13:45.061Z,4.40
2019-06-15T04:14:45.358Z,5.20
2019-06-15T04:15:45.446Z,5.20
2019-06-15T04:16:45.642Z,4.80
2019-06-15T04:17:45.850Z,5.80
2019-06-15T04:18:46.044Z,3.90
2019-06-15T04:19:46.136Z,4.40
2019-06-15T04:20:46.303Z,5.70
2019-06-15T04:21:46.389Z,5.20
2019-06-15T04:22:46.601Z,3.50
2019-06-15T04:23:46.751Z,3.50
2019-06-15T04:24:46.998Z,5.60
2019-06-15T04:25:47.022Z,5.90
2019-06-15T04:26:47.137Z,4.00
2019-06-15T04:27:47.439Z,3.90
2019-06-15T04:28:47.595Z,3.80
2019-06-15T04:29:47.722Z,3.80
2019-06-15T04:30:47.980Z,4.10
2019-06-15T04:31:48.095Z,5.10
2019-06-15T04:32:48.281Z,6.00
2019-06-15T04:33:48.410Z,5.50
2019-06-15T04:34:48.578Z,4.80
2019-06-15T04:35:48.754Z,6.40
2019-06-15T04:36:48.879Z,4.90
2019-06-15T04:37:49.064Z,4.30
2019-06-15T04:38:49.261Z,4.00
2019-06-15T04:39:49.386Z,6.50
2019-06-15T04:40:49.585Z,8.20
2019-06-15T04:41:49.671Z,4.20
2019-06-15T04:42:49.795Z,5.40
2019-06-15T04:43:49.912Z,4.60
2019-06-15T04:44:50.001Z,5.00
2019-06-15T04:45:50.243Z,4.80
2019-06-15T04:46:50.507Z,4.60
2019-06-15T04:47:50.500Z,5.40
2019-06-15T04:48:50.733Z,7.20
2019-06-15T04:49:50.826Z,5.90
2019-06-15T04:50:50.979Z,6.60
2019-06-15T04:51:51.202Z,6.50
2019-06-15T04:52:51.260Z,6.50
2019-06-15T04:53:51.376Z,5.50
2019-06-15T04:54:51.611Z,5.30
2019-06-15T04:55:51.857Z,5.70
2019-06-15T04:56:51.969Z,4.70
2019-06-15T04:57:52.309Z,4.80
2019-06-15T04:58:52.546Z,7.40
2019-06-15T04:59:52.650Z,5.30
2019-06-15T05:00:52.928Z,6.10
2019-06-15T05:01:53.154Z,5.00
2019-06-15T05:02:53.339Z,4.50
2019-06-15T05:03:53.453Z,4.50
2019-06-15T05:04:53.231Z,8.00
2019-06-15T05:05:53.367Z,5.40
2019-06-15T05:06:53.525Z,6.50
2019-06-15T05:07:53.655Z,4.60
2019-06-15T05:08:53.821Z,8.20
2019-06-15T05:09:54.090Z,7.30
2019-06-15T05:10:59.679Z,6.80
2019-06-15T05:11:54.247Z,5.50
2019-06-15T05:12:54.443Z,5.90
2019-06-15T05:13:54.637Z,4.70
2019-06-15T05:14:54.816Z,6.30
2019-06-15T05:15:54.931Z,6.10
2019-06-15T05:16:55.711Z,6.50
2019-06-15T05:17:55.540Z,6.30
2019-06-15T05:18:56.541Z,5.40
2019-06-15T05:19:55.923Z,5.40
2019-06-15T05:20:55.886Z,5.40
2019-06-15T05:21:56.059Z,5.50
2019-06-15T05:22:56.963Z,6.00
2019-06-15T05:23:56.318Z,4.80
2019-06-15T05:24:56.588Z,5.70
2019-06-15T05:25:56.747Z,5.60
2019-06-15T05:27:05.829Z,6.20
2019-06-15T05:27:57.018Z,5.30
2019-06-15T05:28:57.311Z,4.70
2019-06-15T05:29:57.396Z,4.60
2019-06-15T05:31:01.279Z,5.70
2019-06-15T05:31:57.834Z,5.40
2019-06-15T05:32:57.944Z,4.50
2019-06-15T05:33:58.054Z,5.70
2019-06-15T05:34:58.153Z,6.60
2019-06-15T05:35:58.421Z,5.10
2019-06-15T05:36:58.844Z,3.80
2019-06-15T05:37:58.835Z,4.20
2019-06-15T05:38:58.916Z,6.90
2019-06-15T05:39:59.028Z,5.20
2019-06-15T05:40:59.623Z,6.70
2019-06-15T05:41:59.297Z,4.40
2019-06-15T05:42:59.520Z,9.10
2019-06-15T05:43:59.758Z,5.10
2019-06-15T05:45:00.169Z,5.30
2019-06-15T05:46:00.296Z,5.30
2019-06-15T05:47:00.555Z,5.80
2019-06-15T05:48:00.373Z,5.20
2019-06-15T05:49:00.773Z,5.60
2019-06-15T05:50:00.679Z,5.90
2019-06-15T05:51:00.838Z,6.60
2019-06-15T05:52:01.003Z,5.60
2019-06-15T05:53:01.456Z,4.30
2019-06-15T05:54:01.504Z,5.10
2019-06-15T05:55:01.640Z,4.90
2019-06-15T05:56:01.877Z,4.60
2019-06-15T05:57:02.130Z,6.10
2019-06-15T05:58:02.540Z,6.20
2019-06-15T05:59:02.551Z,4.30
2019-06-15T06:00:02.692Z,4.10
2019-06-15T06:01:03.102Z,4.00
2019-06-15T06:02:02.838Z,6.40
2019-06-15T06:03:02.987Z,5.40
2019-06-15T06:04:03.184Z,6.80
2019-06-15T06:05:03.342Z,5.20
2019-06-15T06:06:03.478Z,3.70
2019-06-15T06:07:03.569Z,5.50
2019-06-15T06:08:03.776Z,5.40
2019-06-15T06:09:03.910Z,5.40
2019-06-15T06:10:04.283Z,4.90
2019-06-15T06:11:04.201Z,4.20
2019-06-15T06:12:04.454Z,4.10
2019-06-15T06:13:04.693Z,4.60
2019-06-15T06:14:04.725Z,3.30
2019-06-15T06:15:04.835Z,4.30
2019-06-15T06:16:04.957Z,4.70
2019-06-15T06:17:05.107Z,4.10
2019-06-15T06:18:05.305Z,5.10
2019-06-15T06:19:05.364Z,5.20
2019-06-15T06:20:05.902Z,5.80
2019-06-15T06:21:05.743Z,5.70
2019-06-15T06:22:06.000Z,4.60
2019-06-15T06:23:06.188Z,5.90
2019-06-15T06:24:06.301Z,4.70
2019-06-15T06:25:06.526Z,5.60
2019-06-15T06:26:06.633Z,3.40
2019-06-15T06:27:06.884Z,5.20
2019-06-15T06:28:06.960Z,4.40
2019-06-15T06:29:07.086Z,4.60
2019-06-15T06:30:07.542Z,3.10
2019-06-15T06:31:07.781Z,4.40
2019-06-15T06:32:07.645Z,4.70
2019-06-15T06:33:07.736Z,3.60
2019-06-15T06:34:07.841Z,4.40
2019-06-15T06:35:08.020Z,4.10
2019-06-15T06:36:08.213Z,4.80
2019-06-15T06:37:08.352Z,5.90
2019-06-15T06:38:08.485Z,4.20
2019-06-15T06:39:08.585Z,3.90
2019-06-15T06:40:08.786Z,6.90
2019-06-15T06:41:08.899Z,4.70
2019-06-15T06:42:10.084Z,3.00
2019-06-15T06:43:10.930Z,4.10
2019-06-15T06:44:12.839Z,4.90
2019-06-15T06:45:11.203Z,3.80
2019-06-15T06:46:09.692Z,3.70
2019-06-15T06:47:09.847Z,4.30
2019-06-15T06:48:10.022Z,6.00
2019-06-15T06:49:10.095Z,5.80
2019-06-15T06:50:10.194Z,4.90
2019-06-15T06:51:10.354Z,3.70
2019-06-15T06:52:10.611Z,4.00
2019-06-15T06:53:10.794Z,5.10
2019-06-15T06:54:10.892Z,7.30
2019-06-15T06:55:11.143Z,4.20
2019-06-15T06:56:11.249Z,3.60
2019-06-15T06:57:11.384Z,5.20
2019-06-15T06:58:11.494Z,4.20
2019-06-15T06:59:11.794Z,4.30
2019-06-15T07:00:11.927Z,3.70
2019-06-15T07:01:12.044Z,3.60
2019-06-15T07:02:12.359Z,4.60
2019-06-15T07:03:12.520Z,3.60
2019-06-15T07:04:12.682Z,7.50
2019-06-15T07:05:12.936Z,3.20
2019-06-15T07:06:12.992Z,5.10
2019-06-15T07:07:13.283Z,4.00
2019-06-15T07:08:13.617Z,5.30
2019-06-15T07:09:13.568Z,3.30
2019-06-15T07:10:13.737Z,3.50
2019-06-15T07:11:13.963Z,5.70
2019-06-15T07:12:14.158Z,4.50
2019-06-15T07:13:14.264Z,4.80
2019-06-15T07:14:14.471Z,4.60
2019-06-15T07:15:14.713Z,4.60
2019-06-15T07:16:14.814Z,4.80
2019-06-15T07:17:15.098Z,6.20
2019-06-15T07:18:15.296Z,5.00
2019-06-15T07:19:15.335Z,3.20
2019-06-15T07:20:15.453Z,3.50
2019-06-15T07:21:15.698Z,3.30
2019-06-15T07:22:15.864Z,3.90
2019-06-15T07:23:16.792Z,4.40
2019-06-15T07:24:16.505Z,3.10
2019-06-15T07:25:16.984Z,3.40
2019-06-15T07:26:16.613Z,4.40
2019-06-15T07:27:17.373Z,4.80
2019-06-15T07:28:17.000Z,3.50
2019-06-15T07:29:16.910Z,5.30
2019-06-15T07:30:17.062Z,2.60
2019-06-15T07:31:17.228Z,4.20
2019-06-15T07:32:17.712Z,3.50
2019-06-15T07:33:17.713Z,4.60
2019-06-15T07:34:17.888Z,4.30
2019-06-15T07:35:18.040Z,2.60
2019-06-15T07:36:18.480Z,4.70
2019-06-15T07:37:18.383Z,2.90
2019-06-15T07:38:18.967Z,3.00
2019-06-15T07:39:19.087Z,3.60
2019-06-15T07:40:19.523Z,2.50
2019-06-15T07:41:19.219Z,3.30
2019-06-15T07:42:20.615Z,2.20
2019-06-15T07:43:20.933Z,2.30
2019-06-15T07:44:22.383Z,4.10
2019-06-15T07:45:21.088Z,2.70
2019-06-15T07:46:21.435Z,3.40
2019-06-15T07:47:20.292Z,2.50
2019-06-15T07:48:20.190Z,5.00
2019-06-15T07:49:20.849Z,3.10
2019-06-15T07:50:20.715Z,2.20
2019-06-15T07:51:22.312Z,3.10
2019-06-15T07:52:20.914Z,3.50
2019-06-15T07:53:21.078Z,2.60
2019-06-15T07:54:22.002Z,4.00
2019-06-15T07:55:21.308Z,4.10
2019-06-15T07:56:21.876Z,3.20
2019-06-15T07:57:21.599Z,3.80
2019-06-15T07:58:24.853Z,2.40
2019-06-15T07:59:22.214Z,2.50
2019-06-15T08:00:22.210Z,2.40
2019-06-15T08:01:22.470Z,4.20
2019-06-15T08:02:22.831Z,2.70
2019-06-15T08:03:23.128Z,3.30
2019-06-15T08:04:23.576Z,3.80
2019-06-15T08:05:24.554Z,2.90
2019-06-15T08:06:23.648Z,2.50
2019-06-15T08:07:23.446Z,3.10
2019-06-15T08:08:23.548Z,2.50
2019-06-15T08:09:23.757Z,2.70
2019-06-15T08:10:24.015Z,3.10
2019-06-15T08:11:24.113Z,2.60
2019-06-15T08:12:24.494Z,3.40
2019-06-15T08:13:24.707Z,2.20
2019-06-15T08:14:24.803Z,3.20
2019-06-15T08:15:25.185Z,4.50
2019-06-15T08:16:25.201Z,2.20
2019-06-15T08:17:25.455Z,4.30
2019-06-15T08:18:25.598Z,2.10
2019-06-15T08:19:25.778Z,2.40
2019-06-15T08:20:25.996Z,2.30
2019-06-15T08:21:26.259Z,3.30
2019-06-15T08:22:26.346Z,3.00
2019-06-15T08:23:26.432Z,2.40
2019-06-15T08:24:26.703Z,2.70
2019-06-15T08:25:26.778Z,3.10
2019-06-15T08:26:27.651Z,3.50
2019-06-15T08:27:27.315Z,2.30
2019-06-15T08:28:39.579Z,2.90
2019-06-15T08:29:28.491Z,3.10
2019-06-15T08:30:29.070Z,3.10
2019-06-15T08:31:29.044Z,2.20
2019-06-15T08:32:29.517Z,3.00
2019-06-15T08:33:28.772Z,3.60
2019-06-15T08:34:28.882Z,2.00
2019-06-15T08:35:30.051Z,4.30
2019-06-15T08:36:29.021Z,4.20
2019-06-15T08:37:32.229Z,3.00
2019-06-15T08:38:29.834Z,2.00
2019-06-15T08:39:29.530Z,2.20
2019-06-15T08:40:29.833Z,3.80
2019-06-15T08:41:30.495Z,2.60
2019-06-15T08:42:31.532Z,3.30
2019-06-15T08:43:31.506Z,2.10
2019-06-15T08:44:30.686Z,4.20
2019-06-15T08:45:34.078Z,3.70
2019-06-15T08:46:30.837Z,4.00
2019-06-15T08:47:31.072Z,3.50
2019-06-15T08:48:33.568Z,3.90
2019-06-15T08:49:33.579Z,3.20
2019-06-15T08:50:33.040Z,2.70
2019-06-15T08:51:31.565Z,4.50
2019-06-15T08:52:31.658Z,2.00
2019-06-15T08:53:31.925Z,4.00
2019-06-15T08:54:32.341Z,3.60
2019-06-15T08:55:32.573Z,5.40
2019-06-15T08:56:32.448Z,4.50
2019-06-15T08:57:32.663Z,3.20
2019-06-15T08:58:35.970Z,4.60
2019-06-15T08:59:32.863Z,2.30
2019-06-15T09:00:33.737Z,2.40
2019-06-15T09:01:33.243Z,3.90
2019-06-15T09:02:33.321Z,1.90
2019-06-15T09:03:33.732Z,2.30
2019-06-15T09:04:33.688Z,3.80
2019-06-15T09:05:33.929Z,2.60
2019-06-15T09:06:34.966Z,4.50
2019-06-15T09:07:34.198Z,3.20
2019-06-15T09:08:34.538Z,3.10
2019-06-15T09:09:36.558Z,2.70
2019-06-15T09:10:36.458Z,2.40
2019-06-15T09:11:36.289Z,1.80
2019-06-15T09:12:37.010Z,3.20
2019-06-15T09:13:36.568Z,4.00
2019-06-15T09:14:35.731Z,2.70
2019-06-15T09:15:35.922Z,4.40
2019-06-15T09:16:35.826Z,4.00
2019-06-15T09:17:36.701Z,2.40
2019-06-15T09:18:36.258Z,2.60
2019-06-15T09:19:36.329Z,2.10
2019-06-15T09:20:37.032Z,2.90
2019-06-15T09:21:37.117Z,3.90
2019-06-15T09:22:37.300Z,2.60
2019-06-15T09:23:37.382Z,2.50
2019-06-15T09:24:39.634Z,2.40
2019-06-15T09:25:37.542Z,2.70
2019-06-15T09:26:37.655Z,3.10
2019-06-15T09:27:37.996Z,4.80
2019-06-15T09:28:38.079Z,3.00
2019-06-15T09:29:39.573Z,4.10
2019-06-15T09:30:38.307Z,4.00
2019-06-15T09:31:38.665Z,4.80
2019-06-15T09:32:38.855Z,3.70
2019-06-15T09:33:38.884Z,2.10
2019-06-15T09:34:39.079Z,3.20
2019-06-15T09:35:39.319Z,2.50
2019-06-15T09:36:39.422Z,2.90
2019-06-15T09:37:39.641Z,2.20
2019-06-15T09:38:39.737Z,2.20
2019-06-15T09:39:39.976Z,3.20
2019-06-15T09:40:40.171Z,2.50
2019-06-15T09:41:40.459Z,2.80
2019-06-15T09:42:40.522Z,3.70
2019-06-15T09:43:40.770Z,2.30
2019-06-15T09:44:40.896Z,2.10
2019-06-15T09:45:41.084Z,2.30
2019-06-15T09:46:41.286Z,2.10
2019-06-15T09:47:41.784Z,3.30
2019-06-15T09:48:41.757Z,3.20
2019-06-15T09:49:41.926Z,3.80
2019-06-15T09:50:42.889Z,3.40
2019-06-15T09:51:43.553Z,2.70
2019-06-15T09:52:43.167Z,2.20
2019-06-15T09:53:42.514Z,3.90
2019-06-15T09:54:42.688Z,2.90
2019-06-15T09:55:43.001Z,2.70
2019-06-15T09:56:44.365Z,3.30
2019-06-15T09:57:43.875Z,2.60
2019-06-15T09:58:45.403Z,3.30
2019-06-15T09:59:44.469Z,3.20
2019-06-15T10:00:44.328Z,4.90
2019-06-15T10:01:46.194Z,3.00
2019-06-15T10:02:45.124Z,3.00
2019-06-15T10:03:45.170Z,4.30
2019-06-15T10:04:45.353Z,3.50
2019-06-15T10:05:44.650Z,2.90
2019-06-15T10:06:44.778Z,3.00
2019-06-15T10:07:44.871Z,4.40
2019-06-15T10:08:45.116Z,3.70
2019-06-15T10:09:45.197Z,2.30
2019-06-15T10:10:45.405Z,2.90
2019-06-15T10:11:45.618Z,2.90
2019-06-15T10:12:45.839Z,2.60
2019-06-15T10:13:46.034Z,3.70
2019-06-15T10:14:47.452Z,3.10
2019-06-15T10:15:46.975Z,3.20
2019-06-15T10:16:47.181Z,2.70
2019-06-15T10:17:47.060Z,2.90
2019-06-15T10:18:47.300Z,4.20
2019-06-15T10:19:47.137Z,1.70
2019-06-15T10:20:47.217Z,3.60
2019-06-15T10:21:47.440Z,2.10
2019-06-15T10:22:47.657Z,3.30
2019-06-15T10:23:47.855Z,3.00
2019-06-15T10:24:48.150Z,2.80
2019-06-15T10:25:50.429Z,2.90
2019-06-15T10:26:48.452Z,2.20
2019-06-15T10:27:48.547Z,3.30
2019-06-15T10:28:48.785Z,2.30
2019-06-15T10:29:48.911Z,3.90
2019-06-15T10:30:49.007Z,2.20
2019-06-15T10:31:49.159Z,2.20
2019-06-15T10:32:49.386Z,2.00
2019-06-15T10:33:49.601Z,1.80
2019-06-15T10:34:49.821Z,2.40
2019-06-15T10:35:50.024Z,2.30
2019-06-15T10:36:50.221Z,4.10
2019-06-15T10:37:50.490Z,3.50
2019-06-15T10:38:50.676Z,1.50
2019-06-15T10:39:50.865Z,1.60
2019-06-15T10:40:51.085Z,3.30
2019-06-15T10:41:51.293Z,2.00
2019-06-15T10:42:51.398Z,1.50
2019-06-15T10:43:51.642Z,1.70
2019-06-15T10:44:51.835Z,1.60
2019-06-15T10:45:51.930Z,2.10
2019-06-15T10:46:52.137Z,2.30
2019-06-15T10:47:52.355Z,2.20
2019-06-15T10:48:55.584Z,3.00
2019-06-15T10:49:52.822Z,1.60
2019-06-15T10:50:52.910Z,3.30
2019-06-15T10:51:53.131Z,2.90
2019-06-15T10:52:53.344Z,2.00
2019-06-15T10:53:53.573Z,1.70
2019-06-15T10:54:53.797Z,1.80
2019-06-15T10:55:53.988Z,1.70
2019-06-15T10:56:54.238Z,1.40
2019-06-15T10:57:54.461Z,2.00
2019-06-15T10:58:54.677Z,1.80
2019-06-15T10:59:57.631Z,1.70
2019-06-15T11:00:55.106Z,1.30
2019-06-15T11:01:55.305Z,2.10
2019-06-15T11:02:55.485Z,0.90
2019-06-15T11:03:55.678Z,1.40
2019-06-15T11:04:55.874Z,1.50
2019-06-15T11:05:56.104Z,1.00
2019-06-15T11:06:56.236Z,1.60
2019-06-15T11:07:56.423Z,0.70
2019-06-15T11:08:56.641Z,1.40
2019-06-15T11:09:56.845Z,1.00
2019-06-15T11:10:57.066Z,1.70
2019-06-15T11:11:57.308Z,0.70
2019-06-15T11:12:57.397Z,0.60
2019-06-15T11:13:57.712Z,0.70
2019-06-15T11:14:57.744Z,0.70
2019-06-15T11:15:57.979Z,1.30
2019-06-15T11:16:58.182Z,0.40
2019-06-15T11:17:58.380Z,0.60
2019-06-15T11:18:58.597Z,0.60
2019-06-15T11:19:58.811Z,1.40
2019-06-15T11:20:59.154Z,0.60
2019-06-15T11:21:59.195Z,0.60
2019-06-15T11:22:59.416Z,0.40
2019-06-15T11:23:59.618Z,2.00
2019-06-15T11:24:59.842Z,0.30
2019-06-15T11:26:00.047Z,0.70
2019-06-15T11:27:00.270Z,0.50
2019-06-15T11:28:00.426Z,1.10
2019-06-15T11:29:00.508Z,0.40
2019-06-15T11:30:13.062Z,0.40
2019-06-15T11:31:00.815Z,0.50
2019-06-15T11:32:01.030Z,1.00
2019-06-15T11:33:01.370Z,1.50
2019-06-15T11:34:01.448Z,0.90
2019-06-15T11:35:01.684Z,1.50
2019-06-15T11:36:01.795Z,0.70
2019-06-15T11:37:02.004Z,0.80
2019-06-15T11:38:02.250Z,0.60
2019-06-15T11:39:02.381Z,1.20
2019-06-15T11:40:02.558Z,0.80
2019-06-15T11:41:02.795Z,1.40
2019-06-15T11:42:03.049Z,0.50
2019-06-15T11:43:03.182Z,1.40
2019-06-15T11:44:03.283Z,0.60
2019-06-15T11:45:03.496Z,0.80
2019-06-15T11:46:03.684Z,0.90
2019-06-15T11:47:03.889Z,1.10
2019-06-15T11:48:04.106Z,1.10
2019-06-15T11:49:04.324Z,1.10
2019-06-15T11:50:04.477Z,1.50
2019-06-15T11:51:04.570Z,0.70
2019-06-15T11:52:04.808Z,0.90
2019-06-15T11:53:04.924Z,0.80
2019-06-15T11:54:05.084Z,1.10
2019-06-15T11:55:05.160Z,0.90
2019-06-15T11:56:05.475Z,0.80
2019-06-15T11:57:05.644Z,0.50
2019-06-15T11:58:05.789Z,0.60
2019-06-15T11:59:05.867Z,0.90
2019-06-15T12:00:06.087Z,0.60
2019-06-15T12:01:06.273Z,0.50
2019-06-15T12:02:06.377Z,0.80
2019-06-15T12:03:06.524Z,2.10
2019-06-15T12:04:06.660Z,0.50
2019-06-15T12:05:06.828Z,1.20
2019-06-15T12:06:07.050Z,1.10
2019-06-15T12:07:07.129Z,2.00
2019-06-15T12:08:07.222Z,0.90
2019-06-15T12:09:07.817Z,0.60
2019-06-15T12:10:07.677Z,0.60
2019-06-15T12:11:07.755Z,0.70
2019-06-15T12:12:07.983Z,0.90
2019-06-15T12:13:08.051Z,0.90
2019-06-15T12:14:08.163Z,1.90
2019-06-15T12:15:08.391Z,1.00
2019-06-15T12:16:08.613Z,2.00
2019-06-15T12:17:08.716Z,0.60
2019-06-15T12:18:08.833Z,1.50
2019-06-15T12:19:10.535Z,1.40
2019-06-15T12:20:09.583Z,0.70
2019-06-15T12:21:09.366Z,1.20
2019-06-15T12:22:09.568Z,1.10
2019-06-15T12:23:09.688Z,0.70
2019-06-15T12:24:09.824Z,0.50
2019-06-15T12:25:09.920Z,0.80
2019-06-15T12:26:10.076Z,1.10
2019-06-15T12:27:10.195Z,0.80
2019-06-15T12:28:10.376Z,0.90
2019-06-15T12:29:10.545Z,1.10
2019-06-15T12:30:10.748Z,1.20
2019-06-15T12:31:10.903Z,0.80
2019-06-15T12:32:11.063Z,0.50
2019-06-15T12:33:11.243Z,0.60
2019-06-15T12:34:11.363Z,0.60
2019-06-15T12:35:11.589Z,0.50
2019-06-15T12:36:19.251Z,1.20
2019-06-15T12:37:11.897Z,0.60
2019-06-15T12:38:12.107Z,0.70
2019-06-15T12:39:12.209Z,0.70
2019-06-15T12:40:12.418Z,1.30
2019-06-15T12:41:12.599Z,1.70
2019-06-15T12:42:12.759Z,0.70
2019-06-15T12:43:12.920Z,1.00
2019-06-15T12:44:13.203Z,0.70
2019-06-15T12:45:13.223Z,0.70
2019-06-15T12:46:13.505Z,1.10
2019-06-15T12:47:13.619Z,1.00
2019-06-15T12:48:13.850Z,1.00
2019-06-15T12:49:13.884Z,0.50
2019-06-15T12:50:14.274Z,0.60
2019-06-15T12:51:14.608Z,0.70
2019-06-15T12:52:14.815Z,0.60
2019-06-15T12:53:14.868Z,0.90
2019-06-15T12:54:14.903Z,1.10
2019-06-15T12:55:14.922Z,0.50
2019-06-15T12:56:15.083Z,1.80
2019-06-15T12:57:15.173Z,1.10
2019-06-15T12:58:15.335Z,0.60
2019-06-15T12:59:15.408Z,0.50
2019-06-15T13:00:15.662Z,0.60
2019-06-15T13:01:15.803Z,1.10
2019-06-15T13:02:15.903Z,0.80
2019-06-15T13:03:16.188Z,0.80
2019-06-15T13:04:16.214Z,0.70
2019-06-15T13:05:16.325Z,0.90
2019-06-15T13:06:16.456Z,1.50
2019-06-15T13:07:16.584Z,0.70
2019-06-15T13:08:16.660Z,1.20
2019-06-15T13:09:16.810Z,0.60
2019-06-15T13:10:18.147Z,0.80
2019-06-15T13:11:17.252Z,0.50
2019-06-15T13:12:17.289Z,1.20
2019-06-15T13:13:17.433Z,0.60
2019-06-15T13:14:17.557Z,1.10
2019-06-15T13:15:17.661Z,1.40
2019-06-15T13:16:17.946Z,2.00
2019-06-15T13:17:18.232Z,1.00
2019-06-15T13:18:18.512Z,1.20
2019-06-15T13:19:18.683Z,0.60
2019-06-15T13:20:18.827Z,0.50